createdAt,value
2019-01-18T00:04:00.242Z,95833.73
2019-01-18T00:12:17.249Z,95832.06
2019-01-18T00:15:04.907Z,95839.59
2019-01-18T00:17:33.300Z,95839.73
2019-01-18T00:20:01.695Z,95841.37
2019-01-18T00:22:30.125Z,95830.07
2019-01-18T00:24:58.517Z,95837.61
2019-01-18T00:27:26.903Z,95847.23
2019-01-18T00:32:29.666Z,95845.11
2019-01-18T00:34:58.102Z,95846.42
2019-01-18T00:37:26.498Z,95847.86
2019-01-18T00:39:54.899Z,95845.60
2019-01-18T00:44:56.869Z,95854.63
2019-01-18T00:47:25.328Z,95854.96
2019-01-18T00:52:27.724Z,95859.43
2019-01-18T00:54:56.143Z,95857.36
2019-01-18T00:57:24.538Z,95852.58
2019-01-18T00:59:52.934Z,95855.01
2019-01-18T01:04:55.296Z,95853.46
2019-01-18T01:09:58.094Z,95856.84
2019-01-18T01:17:58.645Z,95861.59
2019-01-18T01:20:27.035Z,95857.34
2019-01-18T01:22:57.762Z,95855.53
2019-01-18T01:25:45.416Z,95856.16
2019-01-18T01:28:25.770Z,95852.87
2019-01-18T01:30:54.178Z,95851.20
2019-01-18T01:33:22.590Z,95855.95
2019-01-18T01:35:50.966Z,95853.33
2019-01-18T01:38:19.388Z,95848.25
2019-01-18T01:40:47.868Z,95852.81
2019-01-18T01:43:35.538Z,95854.39
2019-01-18T01:49:12.143Z,95856.20
2019-01-18T01:52:20.486Z,95850.28
2019-01-18T01:57:43.678Z,95853.03
2019-01-18T02:00:51.996Z,95845.67
2019-01-18T02:03:39.822Z,95846.34
2019-01-18T02:06:08.217Z,95852.05
2019-01-18T02:08:36.607Z,95852.55
2019-01-18T02:11:05.100Z,95863.51
2019-01-18T02:13:33.540Z,95860.20
2019-01-18T02:16:01.951Z,95861.84
2019-01-18T02:18:49.646Z,95856.96
2019-01-18T02:21:18.040Z,95857.59
2019-01-18T02:23:46.438Z,95865.64
2019-01-18T02:26:14.847Z,95861.57
2019-01-18T02:28:43.245Z,95872.05
2019-01-18T02:31:23.778Z,95884.27
2019-01-18T02:33:52.183Z,95899.16
2019-01-18T02:36:20.564Z,95908.34
2019-01-18T02:38:48.994Z,95912.56
2019-01-18T02:41:36.578Z,95923.48
2019-01-18T02:44:05.103Z,95931.39
2019-01-18T02:46:33.507Z,95934.81
2019-01-18T02:49:01.928Z,95927.78
2019-01-18T02:54:23.650Z,95939.96
2019-01-18T02:57:11.462Z,95940.98
2019-01-18T02:59:39.863Z,95951.48
2019-01-18T03:02:27.638Z,95955.67
2019-01-18T03:04:56.020Z,95969.05
2019-01-18T03:07:24.521Z,95961.06
2019-01-18T03:12:27.222Z,95964.80
2019-01-18T03:17:29.266Z,95972.22
2019-01-18T03:19:57.680Z,95966.08
2019-01-18T03:22:26.065Z,95975.84
2019-01-18T03:25:13.767Z,95986.78
2019-01-18T03:27:42.160Z,95994.49
2019-01-18T03:30:50.592Z,96005.34
2019-01-18T03:33:18.980Z,96002.13
2019-01-18T03:35:47.419Z,96000.98
2019-01-18T03:38:15.826Z,96012.72
2019-01-18T03:40:44.216Z,96008.80
2019-01-18T03:43:12.739Z,96007.60
2019-01-18T03:48:15.150Z,96013.14
2019-01-18T03:50:43.543Z,96015.96
2019-01-18T03:53:11.954Z,96019.03
2019-01-18T03:55:40.347Z,96016.89
2019-01-18T04:03:37.801Z,96025.22
2019-01-18T04:06:06.248Z,96021.30
2019-01-18T04:08:34.640Z,96026.28
2019-01-18T04:11:03.036Z,96031.14
2019-01-18T04:16:45.340Z,96043.07
2019-01-18T04:21:48.160Z,96050.84
2019-01-18T04:24:16.604Z,96054.77
2019-01-18T04:26:44.993Z,96059.27
2019-01-18T04:29:13.381Z,96064.58
2019-01-18T04:34:15.722Z,96071.34
2019-01-18T04:36:44.138Z,96070.53
2019-01-18T04:39:12.518Z,96064.92
2019-01-18T04:41:40.914Z,96071.11
2019-01-18T04:44:09.343Z,96081.78
2019-01-18T04:46:37.730Z,96090.00
2019-01-18T04:49:06.126Z,96090.23
2019-01-18T04:51:34.533Z,96096.41
2019-01-18T04:54:02.930Z,96101.25
2019-01-18T04:56:31.398Z,96117.50
2019-01-18T05:01:33.813Z,96128.45
2019-01-18T05:04:02.266Z,96129.05
2019-01-18T05:06:30.658Z,96132.59
2019-01-18T05:08:59.056Z,96137.23
2019-01-18T05:11:27.502Z,96143.64
2019-01-18T05:13:55.886Z,96146.84
2019-01-18T05:21:47.383Z,96160.00
2019-01-18T05:26:49.446Z,96163.81
2019-01-18T05:29:17.898Z,96170.67
2019-01-18T05:32:05.484Z,96174.59
2019-01-18T05:34:33.917Z,96182.91
2019-01-18T05:37:02.314Z,96187.42
2019-01-18T05:39:30.729Z,96187.31
2019-01-18T05:41:59.141Z,96194.91
2019-01-18T05:44:27.540Z,96191.83
2019-01-18T05:46:55.929Z,96203.80
2019-01-18T05:51:58.360Z,96206.41
2019-01-18T05:54:26.812Z,96215.69
2019-01-18T05:56:55.203Z,96217.10
2019-01-18T05:59:23.607Z,96223.26
2019-01-18T06:04:25.580Z,96233.11
2019-01-18T06:06:54.007Z,96229.30
2019-01-18T06:09:41.594Z,96228.85
2019-01-18T06:14:44.354Z,96245.11
2019-01-18T06:19:46.344Z,96255.42
2019-01-18T06:24:48.462Z,96266.20
2019-01-18T06:27:16.899Z,96268.35
2019-01-18T06:29:45.292Z,96272.86
2019-01-18T06:32:13.707Z,96274.72
2019-01-18T06:34:42.133Z,96273.08
2019-01-18T06:37:10.529Z,96277.11
2019-01-18T06:39:38.921Z,96274.98
2019-01-18T06:42:07.509Z,96282.69
2019-01-18T06:44:35.907Z,96288.14
2019-01-18T06:47:04.368Z,96294.77
2019-01-18T06:49:32.797Z,96297.05
2019-01-18T06:52:01.190Z,96310.91
2019-01-18T06:54:29.589Z,96307.22
2019-01-18T06:56:58.122Z,96310.20
2019-01-18T06:59:26.514Z,96311.14
2019-01-18T07:01:54.971Z,96314.35
2019-01-18T07:04:23.390Z,96323.14
2019-01-18T07:06:51.783Z,96335.48
2019-01-18T07:09:20.175Z,96335.59
2019-01-18T07:11:48.594Z,96339.38
2019-01-18T07:14:16.991Z,96344.33
2019-01-18T07:16:45.408Z,96349.55
2019-01-18T07:19:14.143Z,96360.00
2019-01-18T07:21:42.538Z,96362.62
2019-01-18T07:24:10.930Z,96363.00
2019-01-18T07:26:39.355Z,96365.23
2019-01-18T07:29:08.115Z,96375.55
2019-01-18T07:31:36.515Z,96375.06
2019-01-18T07:34:05.099Z,96383.02
2019-01-18T07:36:33.504Z,96379.95
2019-01-18T07:39:01.906Z,96386.48
2019-01-18T07:41:30.335Z,96387.90
2019-01-18T07:43:58.719Z,96392.16
2019-01-18T07:46:27.181Z,96395.96
2019-01-18T07:48:55.610Z,96395.35
2019-01-18T07:51:24.010Z,96399.75
2019-01-18T07:53:52.405Z,96404.50
2019-01-18T07:56:21.022Z,96410.09
2019-01-18T07:58:49.463Z,96413.42
2019-01-18T08:01:22.018Z,96418.75
2019-01-18T08:03:48.123Z,96415.19
2019-01-18T08:06:16.519Z,96422.14
2019-01-18T08:08:44.911Z,96426.53
2019-01-18T08:11:13.566Z,96427.84
2019-01-18T08:13:41.960Z,96430.92
2019-01-18T08:16:10.351Z,96432.45
2019-01-18T08:18:38.893Z,96441.47
2019-01-18T08:21:07.283Z,96444.31
2019-01-18T08:23:35.678Z,96444.00
2019-01-18T08:26:04.457Z,96441.73
2019-01-18T08:28:32.855Z,96444.36
2019-01-18T08:31:01.249Z,96445.44
2019-01-18T08:33:29.750Z,96453.39
2019-01-18T08:35:58.223Z,96455.65
2019-01-18T08:38:26.610Z,96458.66
2019-01-18T08:40:55.128Z,96455.45
2019-01-18T08:43:23.520Z,96458.53
2019-01-18T08:45:51.912Z,96454.02
2019-01-18T08:48:20.587Z,96469.33
2019-01-18T08:50:48.967Z,96469.94
2019-01-18T08:53:17.365Z,96458.67
2019-01-18T08:55:45.859Z,96469.46
2019-01-18T08:58:14.254Z,96466.40
2019-01-18T09:00:42.645Z,96467.72
2019-01-18T09:03:11.151Z,96473.67
2019-01-18T09:05:39.547Z,96474.14
2019-01-18T09:08:08.103Z,96478.19
2019-01-18T09:10:40.929Z,96480.69
2019-01-18T09:13:09.333Z,96483.91
2019-01-18T09:15:37.730Z,96483.31
2019-01-18T09:18:06.639Z,96491.99
2019-01-18T09:20:35.104Z,96492.81
2019-01-18T09:23:03.722Z,96494.72
2019-01-18T09:25:32.341Z,96499.94
2019-01-18T09:28:00.731Z,96491.88
2019-01-18T09:30:34.235Z,96494.50
2019-01-18T09:33:04.275Z,96500.31
2019-01-18T09:35:33.609Z,96502.67
2019-01-18T09:38:04.706Z,96504.14
2019-01-18T09:40:34.800Z,96505.56
2019-01-18T09:43:03.259Z,96503.55
2019-01-18T09:45:31.652Z,96509.14
2019-01-18T09:48:00.082Z,96509.84
2019-01-18T09:50:33.099Z,96509.63
2019-01-18T09:53:03.236Z,96499.17
2019-01-18T09:55:31.800Z,96508.33
2019-01-18T09:58:00.185Z,96504.86
2019-01-18T10:00:34.353Z,96500.82
2019-01-18T10:03:03.020Z,96502.13
2019-01-18T10:05:31.657Z,96504.84
2019-01-18T10:08:00.289Z,96503.67
2019-01-18T10:10:28.709Z,96498.19
2019-01-18T10:12:57.165Z,96498.78
2019-01-18T10:15:37.406Z,96502.00
2019-01-18T10:18:07.004Z,96497.14
2019-01-18T10:20:35.401Z,96496.67
2019-01-18T10:23:04.424Z,96504.52
2019-01-18T10:25:32.984Z,96497.73
2019-01-18T10:28:01.380Z,96500.61
2019-01-18T10:30:29.963Z,96496.55
2019-01-18T10:32:58.525Z,96489.45
2019-01-18T10:35:27.928Z,96494.91
2019-01-18T10:37:56.348Z,96492.89
2019-01-18T10:40:24.741Z,96488.83
2019-01-18T10:42:53.202Z,96489.44
2019-01-18T10:45:22.326Z,96483.48
2019-01-18T10:47:51.202Z,96486.11
2019-01-18T10:50:22.035Z,96484.09
2019-01-18T10:52:50.456Z,96482.30
2019-01-18T10:55:20.367Z,96492.16
2019-01-18T10:57:48.827Z,96486.22
2019-01-18T11:00:22.719Z,96487.52
2019-01-18T11:02:52.047Z,96485.02
2019-01-18T11:05:21.278Z,96488.83
2019-01-18T11:07:50.466Z,96485.34
2019-01-18T11:10:19.197Z,96486.30
2019-01-18T11:12:47.758Z,96477.44
2019-01-18T11:15:24.501Z,96481.31
2019-01-18T11:17:52.900Z,96471.97
2019-01-18T11:20:24.377Z,96474.95
2019-01-18T11:22:53.938Z,96467.12
2019-01-18T11:25:22.390Z,96472.14
2019-01-18T11:27:50.786Z,96470.58
2019-01-18T11:30:19.220Z,96465.97
2019-01-18T11:32:47.684Z,96465.14
2019-01-18T11:35:16.544Z,96463.23
2019-01-18T11:37:45.284Z,96465.73
2019-01-18T11:40:21.941Z,96460.10
2019-01-18T11:42:51.034Z,96460.71
2019-01-18T11:45:19.774Z,96461.44
2019-01-18T11:47:48.603Z,96460.39
2019-01-18T11:50:22.806Z,96458.38
2019-01-18T11:52:51.193Z,96452.66
2019-01-18T11:55:19.590Z,96454.19
2019-01-18T11:57:48.641Z,96454.75
2019-01-18T12:00:19.762Z,96450.22
2019-01-18T12:02:48.440Z,96450.22
2019-01-18T12:05:17.627Z,96453.05
2019-01-18T12:07:46.070Z,96450.59
2019-01-18T12:10:23.484Z,96449.52
2019-01-18T12:12:51.952Z,96444.63
2019-01-18T12:15:20.510Z,96442.69
2019-01-18T12:17:48.939Z,96444.18
2019-01-18T12:20:28.966Z,96441.87
2019-01-18T12:22:57.636Z,96439.83
2019-01-18T12:25:26.339Z,96435.87
2019-01-18T12:27:54.723Z,96430.59
2019-01-18T12:30:29.556Z,96431.39
2019-01-18T12:32:58.060Z,96426.80
2019-01-18T12:38:20.807Z,96430.58
2019-01-18T12:43:36.655Z,96429.48
2019-01-18T12:49:13.257Z,96430.70
2019-01-18T12:51:41.723Z,96423.91
2019-01-18T12:54:10.113Z,96422.80
2019-01-18T12:56:38.547Z,96417.59
2019-01-18T12:59:26.162Z,96420.94
2019-01-18T13:04:28.983Z,96418.06
2019-01-18T13:06:57.403Z,96419.48
2019-01-18T13:09:25.804Z,96418.71
2019-01-18T13:11:54.194Z,96411.55
2019-01-18T13:14:22.643Z,96418.93
2019-01-18T13:16:51.105Z,96415.70
2019-01-18T13:22:13.770Z,96417.11
2019-01-18T13:25:01.381Z,96414.03
2019-01-18T13:35:32.523Z,96407.21
2019-01-18T13:40:35.017Z,96404.92
2019-01-18T13:43:22.688Z,96402.08
2019-01-18T13:46:10.293Z,96410.06
2019-01-18T13:48:57.994Z,96403.87
2019-01-18T13:51:26.393Z,96407.20
2019-01-18T13:53:54.791Z,96405.29
2019-01-18T13:58:57.149Z,96406.04
2019-01-18T14:01:25.539Z,96405.10
2019-01-18T14:03:53.962Z,96402.82
2019-01-18T14:06:22.360Z,96406.34
2019-01-18T14:08:50.762Z,96411.19
2019-01-18T14:11:59.187Z,96411.56
2019-01-18T14:17:16.713Z,96407.61
2019-01-18T14:19:45.115Z,96410.10
2019-01-18T14:22:13.502Z,96410.56
2019-01-18T14:27:23.301Z,96403.42
2019-01-18T14:32:25.736Z,96413.03
2019-01-18T14:37:28.156Z,96413.42
2019-01-18T14:39:56.547Z,96414.14
2019-01-18T14:42:44.172Z,96414.83
2019-01-18T14:45:52.574Z,96416.14
2019-01-18T14:50:55.429Z,96427.66
2019-01-18T14:53:23.857Z,96426.37
2019-01-18T14:55:52.250Z,96435.48
2019-01-18T15:01:48.022Z,96432.59
2019-01-18T15:06:50.554Z,96435.16
2019-01-18T15:09:18.971Z,96436.39
2019-01-18T15:11:47.370Z,96435.59
2019-01-18T15:14:15.761Z,96437.39
2019-01-18T15:16:44.217Z,96435.30
2019-01-18T15:19:12.606Z,96432.22
2019-01-18T15:21:40.994Z,96429.20
2019-01-18T15:27:23.882Z,96438.48
2019-01-18T15:29:52.290Z,96434.28
2019-01-18T15:33:00.849Z,96444.03
2019-01-18T15:36:10.664Z,96442.80
2019-01-18T15:38:39.102Z,96442.53
2019-01-18T15:41:26.813Z,96445.92
2019-01-18T15:46:29.313Z,96440.68
2019-01-18T15:48:57.749Z,96441.56
2019-01-18T15:51:26.137Z,96443.38
2019-01-18T15:53:54.542Z,96445.42
2019-01-18T15:59:16.641Z,96453.73
2019-01-18T16:02:04.425Z,96454.95
2019-01-18T16:04:32.893Z,96461.76
2019-01-18T16:07:01.293Z,96462.12
2019-01-18T16:09:29.721Z,96466.92
2019-01-18T16:11:58.185Z,96461.45
2019-01-18T16:14:26.608Z,96458.61
2019-01-18T16:19:47.919Z,96463.14
2019-01-18T16:22:16.321Z,96456.87
2019-01-18T16:24:44.800Z,96465.44
2019-01-18T16:27:13.212Z,96470.69
2019-01-18T16:29:41.611Z,96472.84
2019-01-18T16:34:49.111Z,96472.52
2019-01-18T16:37:57.431Z,96468.73
2019-01-18T16:41:05.781Z,96465.08
2019-01-18T16:44:14.111Z,96464.85
2019-01-18T16:46:42.537Z,96467.35
2019-01-18T16:49:10.941Z,96467.83
2019-01-18T16:51:39.351Z,96463.30
2019-01-18T16:54:27.303Z,96462.58
2019-01-18T16:57:14.943Z,96461.86
2019-01-18T17:02:57.660Z,96465.80
2019-01-18T17:05:26.178Z,96466.14
2019-01-18T17:07:54.575Z,96460.08
2019-01-18T17:10:23.054Z,96462.33
2019-01-18T17:12:51.475Z,96461.39
2019-01-18T17:15:19.866Z,96469.00
2019-01-18T17:17:48.282Z,96466.02
2019-01-18T17:20:56.741Z,96472.18
2019-01-18T17:23:25.139Z,96468.14
2019-01-18T17:25:53.548Z,96480.27
2019-01-18T17:31:07.503Z,96477.73
2019-01-18T17:33:25.903Z,96475.95
2019-01-18T17:36:34.266Z,96474.50
2019-01-18T17:39:42.626Z,96476.61
2019-01-18T17:42:50.995Z,96476.72
2019-01-18T17:45:58.023Z,96482.81
2019-01-18T17:49:06.353Z,96480.56
2019-01-18T17:52:13.381Z,96477.97
2019-01-18T17:55:21.703Z,96477.15
2019-01-18T17:58:30.433Z,96477.73
2019-01-18T18:01:38.801Z,96479.60
2019-01-18T18:04:47.295Z,96480.67
2019-01-18T18:07:54.285Z,96478.77
2019-01-18T18:11:01.469Z,96484.34
2019-01-18T18:14:10.103Z,96480.41
2019-01-18T18:17:18.611Z,96475.88
2019-01-18T18:20:25.612Z,96474.34
2019-01-18T18:23:32.613Z,96476.95
2019-01-18T18:26:40.937Z,96471.70
2019-01-18T18:29:49.472Z,96470.02
2019-01-18T18:32:56.463Z,96463.67
2019-01-18T18:35:39.913Z,96463.06
2019-01-18T18:38:26.397Z,96467.35
2019-01-18T18:41:00.609Z,96466.02
2019-01-18T18:44:05.322Z,96461.59
2019-01-18T18:46:53.563Z,96460.37
2019-01-18T18:49:40.083Z,96465.45
2019-01-18T18:52:14.775Z,96459.78
2019-01-18T18:55:01.591Z,96456.19
2019-01-18T18:57:59.455Z,96453.44
2019-01-18T19:00:39.694Z,96457.73
2019-01-18T19:03:29.180Z,96454.41
2019-01-18T19:06:32.096Z,96450.84
2019-01-18T19:09:20.115Z,96450.11
2019-01-18T19:11:51.587Z,96447.16
2019-01-18T19:14:23.030Z,96443.25
2019-01-18T19:17:03.400Z,96446.09
2019-01-18T19:19:54.584Z,96450.73
2019-01-18T19:22:42.541Z,96449.53
2019-01-18T19:25:22.833Z,96444.66
2019-01-18T19:27:54.392Z,96444.52
2019-01-18T19:30:25.848Z,96447.13
2019-01-18T19:33:02.925Z,96446.27
2019-01-18T19:35:46.004Z,96443.91
2019-01-18T19:38:37.345Z,96441.78
2019-01-18T19:41:20.687Z,96443.42
2019-01-18T19:43:54.780Z,96440.17
2019-01-18T19:46:45.596Z,96440.71
2019-01-18T19:49:26.119Z,96444.86
2019-01-18T19:52:20.282Z,96440.33
2019-01-18T19:54:54.671Z,96441.11
2019-01-18T19:57:28.677Z,96442.03
2019-01-18T20:00:20.224Z,96440.73
2019-01-18T20:03:03.822Z,96446.19
2019-01-18T20:05:38.228Z,96446.19
2019-01-18T20:08:12.227Z,96440.97
2019-01-18T20:10:50.009Z,96443.38
2019-01-18T20:13:24.041Z,96441.94
2019-01-18T20:16:12.267Z,96441.11
2019-01-18T20:19:18.442Z,96438.27
2019-01-18T20:22:04.868Z,96443.34
2019-01-18T20:25:09.719Z,96436.27
2019-01-18T20:27:53.086Z,96435.33
2019-01-18T20:30:27.269Z,96437.84
2019-01-18T20:33:01.737Z,96442.42
2019-01-18T20:35:45.378Z,96447.31
2019-01-18T20:38:33.770Z,96439.11
2019-01-18T20:41:17.423Z,96433.75
2019-01-18T20:43:57.708Z,96432.65
2019-01-18T20:46:41.379Z,96432.78
2019-01-18T20:49:13.415Z,96429.31
2019-01-18T20:52:05.414Z,96425.99
2019-01-18T20:54:55.079Z,96422.89
2019-01-18T20:57:35.073Z,96421.78
2019-01-18T21:00:18.506Z,96413.83
2019-01-18T21:03:21.559Z,96416.43
2019-01-18T21:05:59.104Z,96416.85
2019-01-18T21:08:36.190Z,96412.47
2019-01-18T21:11:10.501Z,96416.38
2019-01-18T21:13:44.712Z,96413.67
2019-01-18T21:16:21.910Z,96414.73
2019-01-18T21:19:12.510Z,96409.05
2019-01-18T21:22:05.103Z,96403.94
2019-01-18T21:24:54.677Z,96407.02
2019-01-18T21:27:32.130Z,96401.09
2019-01-18T21:30:21.371Z,96401.61
2019-01-18T21:33:13.921Z,96397.45
2019-01-18T21:36:01.529Z,96398.02
2019-01-18T21:38:51.157Z,96388.54
2019-01-18T21:41:25.033Z,96388.44
2019-01-18T21:44:20.954Z,96389.17
2019-01-18T21:46:58.415Z,96384.49
2019-01-18T21:49:42.189Z,96384.74
2019-01-18T21:52:45.561Z,96392.84
2019-01-18T21:55:19.905Z,96390.47
2019-01-18T21:58:00.361Z,96390.47
2019-01-18T22:00:48.392Z,96392.34
2019-01-18T22:03:22.496Z,96392.82
2019-01-18T22:06:10.687Z,96395.42
2019-01-18T22:09:15.765Z,96401.07
2019-01-18T22:12:02.549Z,96399.20
2019-01-18T22:14:56.537Z,96396.25
2019-01-18T22:17:28.043Z,96395.77
2019-01-18T22:20:17.082Z,96385.45
2019-01-18T22:23:07.386Z,96390.03
2019-01-18T22:25:50.772Z,96386.30
2019-01-18T22:28:28.109Z,96388.17
2019-01-18T22:31:17.035Z,96389.22
2019-01-18T22:33:57.215Z,96390.14
2019-01-18T22:36:57.219Z,96389.73
2019-01-18T22:39:31.465Z,96387.99
2019-01-18T22:42:11.581Z,96378.58
2019-01-18T22:45:08.942Z,96381.02
2019-01-18T22:48:01.334Z,96374.61
2019-01-18T22:50:58.931Z,96371.28
2019-01-18T22:53:30.388Z,96365.52
2019-01-18T22:56:07.075Z,96357.36
2019-01-18T22:58:53.774Z,96360.56
2019-01-18T23:01:32.219Z,96365.52
2019-01-18T23:04:26.220Z,96363.58
2019-01-18T23:07:12.089Z,96353.69
2019-01-18T23:10:07.680Z,96352.61
2019-01-18T23:12:42.023Z,96350.20
2019-01-18T23:15:32.758Z,96351.97
2019-01-18T23:18:06.937Z,96348.08
2019-01-18T23:21:04.103Z,96345.19
2019-01-18T23:23:41.991Z,96339.55
2019-01-18T23:26:22.293Z,96337.86
2019-01-18T23:29:08.729Z,96332.89
2019-01-18T23:31:48.329Z,96331.20
2019-01-18T23:34:22.860Z,96323.60
2019-01-18T23:36:56.968Z,96315.93
2019-01-18T23:39:28.447Z,96316.66
2019-01-18T23:42:16.179Z,96312.59
2019-01-18T23:44:59.459Z,96310.38
2019-01-18T23:47:39.864Z,96309.30
2019-01-18T23:50:31.185Z,96302.42
2019-01-18T23:53:17.676Z,96298.75
2019-01-18T23:55:54.813Z,96299.34
2019-01-18T23:58:32.214Z,96292.59
